createdAt,value
2019-04-05T00:01:23.546Z,28.67
2019-04-05T00:03:52.287Z,29.57
2019-04-05T00:06:20.778Z,27.90
2019-04-05T00:08:49.281Z,27.27
2019-04-05T00:11:18.064Z,28.57
2019-04-05T00:13:46.525Z,27.93
2019-04-05T00:16:14.996Z,33.00
2019-04-05T00:18:43.500Z,28.63
2019-04-05T00:21:11.978Z,31.90
2019-04-05T00:23:40.457Z,31.10
2019-04-05T00:26:09.202Z,29.73
2019-04-05T00:28:37.654Z,32.03
2019-04-05T00:31:06.135Z,36.47
2019-04-05T00:33:34.586Z,35.00
2019-04-05T00:36:03.075Z,38.50
2019-04-05T00:38:31.555Z,36.67
2019-04-05T00:41:00.045Z,35.43
2019-04-05T00:43:28.514Z,37.37
2019-04-05T00:45:57.087Z,39.43
2019-04-05T00:48:25.579Z,38.57
2019-04-05T00:50:54.050Z,35.87
2019-04-05T00:53:22.862Z,40.77
2019-04-05T00:55:51.405Z,42.23
2019-04-05T00:58:19.862Z,42.00
2019-04-05T01:00:48.353Z,40.23
2019-04-05T01:03:16.835Z,40.80
2019-04-05T01:05:45.638Z,39.87
2019-04-05T01:08:14.093Z,42.57
2019-04-05T01:10:42.594Z,40.30
2019-04-05T01:13:11.088Z,36.13
2019-04-05T01:15:41.041Z,34.87
2019-04-05T01:18:10.070Z,39.87
2019-04-05T01:20:38.561Z,38.10
2019-04-05T01:23:07.072Z,40.73
2019-04-05T01:25:36.569Z,39.33
2019-04-05T01:28:05.039Z,46.17
2019-04-05T01:30:33.517Z,36.30
2019-04-05T01:33:02.299Z,35.63
2019-04-05T01:35:30.805Z,42.07
2019-04-05T01:37:59.389Z,40.57
2019-04-05T01:40:28.553Z,46.67
2019-04-05T01:42:57.074Z,42.27
2019-04-05T01:45:25.553Z,41.13
2019-04-05T01:47:54.030Z,43.47
2019-04-05T01:50:22.516Z,43.80
2019-04-05T01:52:50.988Z,35.90
2019-04-05T01:55:19.480Z,41.87
2019-04-05T01:57:47.958Z,36.10
2019-04-05T02:00:16.715Z,39.93
2019-04-05T02:02:45.203Z,41.23
2019-04-05T02:05:13.693Z,38.90
2019-04-05T02:07:42.176Z,38.50
2019-04-05T02:10:10.713Z,37.97
2019-04-05T02:12:39.213Z,39.73
2019-04-05T02:15:07.675Z,39.00
2019-04-05T02:17:36.218Z,45.03
2019-04-05T02:20:05.331Z,42.87
2019-04-05T02:22:33.810Z,43.10
2019-04-05T02:25:02.560Z,42.30
2019-04-05T02:27:31.056Z,39.90
2019-04-05T02:29:59.514Z,41.77
2019-04-05T02:32:28.001Z,41.07
2019-04-05T02:34:56.487Z,43.17
2019-04-05T02:37:24.979Z,32.57
2019-04-05T02:39:53.467Z,41.13
2019-04-05T02:42:22.070Z,37.93
2019-04-05T02:44:50.545Z,39.30
2019-04-05T02:47:19.282Z,36.40
2019-04-05T02:49:47.740Z,42.57
2019-04-05T02:52:16.270Z,44.07
2019-04-05T02:54:44.928Z,41.03
2019-04-05T02:57:13.409Z,39.10
2019-04-05T02:59:41.868Z,42.53
2019-04-05T03:02:10.330Z,44.70
2019-04-05T03:04:38.864Z,43.90
2019-04-05T03:07:07.322Z,36.20
2019-04-05T03:09:35.890Z,44.27
2019-04-05T03:12:04.471Z,42.43
2019-04-05T03:14:33.004Z,43.17
2019-04-05T03:17:01.494Z,39.57
2019-04-05T03:19:31.259Z,34.73
2019-04-05T03:22:03.108Z,41.70
2019-04-05T03:24:31.640Z,38.03
2019-04-05T03:27:02.558Z,46.13
2019-04-05T03:29:31.056Z,43.20
2019-04-05T03:31:59.589Z,46.17
2019-04-05T03:34:28.164Z,40.23
2019-04-05T03:36:56.630Z,43.30
2019-04-05T03:39:25.170Z,40.87
2019-04-05T03:41:53.922Z,42.33
2019-04-05T03:44:23.357Z,45.87
2019-04-05T03:46:56.980Z,39.20
2019-04-05T03:49:22.544Z,41.43
2019-04-05T03:51:51.017Z,47.17
2019-04-05T03:54:19.466Z,49.13
2019-04-05T03:56:47.932Z,51.50
2019-04-05T03:59:16.403Z,51.70
2019-04-05T04:01:44.863Z,48.87
2019-04-05T04:04:13.346Z,48.53
2019-04-05T04:06:41.877Z,43.23
2019-04-05T04:09:10.357Z,43.57
2019-04-05T04:11:38.868Z,45.83
2019-04-05T04:14:07.546Z,49.17
2019-04-05T04:16:36.247Z,45.70
2019-04-05T04:19:04.752Z,45.87
2019-04-05T04:21:43.483Z,45.30
2019-04-05T04:24:11.995Z,46.43
2019-04-05T04:26:40.617Z,47.93
2019-04-05T04:29:09.101Z,48.80
2019-04-05T04:31:37.588Z,45.50
2019-04-05T04:34:06.684Z,52.37
2019-04-05T04:36:35.244Z,50.43
2019-04-05T04:39:04.970Z,46.27
2019-04-05T04:41:33.447Z,46.67
2019-04-05T04:44:02.022Z,49.10
2019-04-05T04:46:30.479Z,48.57
2019-04-05T04:48:58.991Z,46.73
2019-04-05T04:51:27.482Z,43.00
2019-04-05T04:53:56.063Z,39.43
2019-04-05T04:56:24.602Z,41.27
2019-04-05T04:58:53.181Z,37.80
2019-04-05T05:01:21.764Z,40.00
2019-04-05T05:03:50.241Z,42.70
2019-04-05T05:06:18.829Z,39.37
2019-04-05T05:08:47.319Z,39.33
2019-04-05T05:11:15.791Z,39.70
2019-04-05T05:13:44.270Z,36.60
2019-04-05T05:16:12.756Z,42.90
2019-04-05T05:18:41.227Z,37.13
2019-04-05T05:21:09.719Z,41.03
2019-04-05T05:23:38.209Z,37.90
2019-04-05T05:26:06.900Z,37.20
2019-04-05T05:28:35.567Z,43.97
2019-04-05T05:31:04.073Z,45.47
2019-04-05T05:33:32.593Z,37.63
2019-04-05T05:36:01.101Z,39.27
2019-04-05T05:38:30.098Z,41.73
2019-04-05T05:40:58.586Z,44.73
2019-04-05T05:43:27.099Z,45.60
2019-04-05T05:45:55.586Z,44.77
2019-04-05T05:48:24.084Z,38.57
2019-04-05T05:50:52.597Z,38.60
2019-04-05T05:53:21.120Z,45.27
2019-04-05T05:55:49.618Z,46.40
2019-04-05T05:58:18.411Z,44.93
2019-04-05T06:00:47.153Z,44.13
2019-04-05T06:03:16.687Z,41.80
2019-04-05T06:05:45.391Z,45.57
2019-04-05T06:08:13.875Z,40.40
2019-04-05T06:10:42.396Z,39.00
2019-04-05T06:13:11.178Z,36.67
2019-04-05T06:15:39.957Z,41.37
2019-04-05T06:18:11.924Z,41.00
2019-04-05T06:20:38.631Z,44.10
2019-04-05T06:23:07.403Z,46.10
2019-04-05T06:25:35.881Z,43.77
2019-04-05T06:28:04.362Z,40.67
2019-04-05T06:30:32.941Z,44.83
2019-04-05T06:33:01.424Z,43.23
2019-04-05T06:35:29.897Z,40.17
2019-04-05T06:37:58.364Z,39.93
2019-04-05T06:40:39.659Z,45.03
2019-04-05T06:42:57.332Z,39.20
2019-04-05T06:45:25.813Z,37.77
2019-04-05T06:47:54.547Z,39.63
2019-04-05T06:50:23.020Z,37.63
2019-04-05T06:52:51.520Z,41.93
2019-04-05T06:55:19.972Z,39.67
2019-04-05T06:57:48.469Z,40.63
2019-04-05T07:00:20.050Z,42.03
2019-04-05T07:02:48.537Z,37.67
2019-04-05T07:05:17.022Z,36.87
2019-04-05T07:07:45.499Z,33.10
2019-04-05T07:10:13.939Z,35.90
2019-04-05T07:12:42.468Z,35.37
2019-04-05T07:15:10.911Z,42.13
2019-04-05T07:17:39.472Z,42.00
2019-04-05T07:20:08.551Z,36.93
2019-04-05T07:22:39.453Z,37.47
2019-04-05T07:25:07.439Z,34.63
2019-04-05T07:27:35.956Z,42.80
2019-04-05T07:30:04.869Z,44.67
2019-04-05T07:32:33.333Z,40.53
2019-04-05T07:35:02.138Z,43.30
2019-04-05T07:37:30.624Z,41.53
2019-04-05T07:39:59.146Z,43.00
2019-04-05T07:42:27.609Z,44.43
2019-04-05T07:44:56.087Z,46.87
2019-04-05T07:47:24.541Z,40.70
2019-04-05T07:49:53.298Z,41.50
2019-04-05T07:52:21.775Z,39.00
2019-04-05T07:54:50.270Z,43.50
2019-04-05T07:57:18.753Z,47.37
2019-04-05T07:59:47.247Z,43.53
2019-04-05T08:02:15.765Z,42.10
2019-04-05T08:04:44.403Z,42.43
2019-04-05T08:07:13.476Z,41.90
2019-04-05T08:09:41.944Z,39.40
2019-04-05T08:12:10.403Z,39.00
2019-04-05T08:14:38.986Z,42.97
2019-04-05T08:17:07.456Z,43.37
2019-04-05T08:19:35.938Z,47.80
2019-04-05T08:22:04.487Z,44.43
2019-04-05T08:24:32.979Z,50.93
2019-04-05T08:27:01.449Z,40.57
2019-04-05T08:29:29.930Z,40.63
2019-04-05T08:31:58.420Z,48.07
2019-04-05T08:34:26.895Z,45.67
2019-04-05T08:36:55.369Z,47.17
2019-04-05T08:39:23.899Z,41.03
2019-04-05T08:41:52.376Z,48.97
2019-04-05T08:44:20.860Z,51.07
2019-04-05T08:46:49.361Z,42.80
2019-04-05T08:49:17.841Z,46.67
2019-04-05T08:51:46.315Z,50.27
2019-04-05T08:54:14.806Z,41.40
2019-04-05T08:56:43.290Z,44.77
2019-04-05T08:59:12.085Z,47.60
2019-04-05T09:01:40.578Z,52.07
2019-04-05T09:04:09.052Z,40.00
2019-04-05T09:06:37.583Z,45.27
2019-04-05T09:09:07.203Z,50.70
2019-04-05T09:11:35.987Z,47.40
2019-04-05T09:14:04.599Z,48.17
2019-04-05T09:16:33.084Z,46.33
2019-04-05T09:19:01.710Z,45.27
2019-04-05T09:21:30.234Z,50.20
2019-04-05T09:23:59.441Z,48.30
2019-04-05T09:26:28.052Z,38.93
2019-04-05T09:28:56.519Z,50.73
2019-04-05T09:31:25.590Z,50.70
2019-04-05T09:33:54.113Z,49.57
2019-04-05T09:36:22.656Z,50.67
2019-04-05T09:38:51.138Z,49.03
2019-04-05T09:41:19.644Z,48.07
2019-04-05T09:43:48.131Z,52.43
2019-04-05T09:46:16.616Z,47.73
2019-04-05T09:48:45.104Z,49.70
2019-04-05T09:51:13.698Z,51.00
2019-04-05T09:53:42.188Z,48.20
2019-04-05T09:56:10.680Z,51.17
2019-04-05T09:58:39.177Z,49.63
2019-04-05T10:01:07.666Z,49.37
2019-04-05T10:03:36.156Z,38.70
2019-04-05T10:06:04.912Z,43.53
2019-04-05T10:08:33.393Z,49.77
2019-04-05T10:11:02.095Z,47.37
2019-04-05T10:13:30.574Z,49.37
2019-04-05T10:15:59.043Z,41.33
2019-04-05T10:18:27.506Z,48.33
2019-04-05T10:20:55.972Z,48.20
2019-04-05T10:23:24.487Z,49.47
2019-04-05T10:25:52.986Z,46.47
2019-04-05T10:28:21.453Z,39.90
2019-04-05T10:30:51.972Z,45.93
2019-04-05T10:33:20.215Z,42.87
2019-04-05T10:35:48.724Z,48.10
2019-04-05T10:38:17.204Z,47.23
2019-04-05T10:40:45.700Z,49.70
2019-04-05T10:43:14.238Z,48.27
2019-04-05T10:45:42.723Z,42.67
2019-04-05T10:48:11.234Z,45.77
2019-04-05T10:50:39.738Z,51.33
2019-04-05T10:53:08.220Z,50.93
2019-04-05T10:55:36.758Z,46.20
2019-04-05T10:58:05.440Z,49.87
2019-04-05T11:00:33.955Z,43.47
2019-04-05T11:03:02.433Z,39.67
2019-04-05T11:05:31.010Z,44.63
2019-04-05T11:07:59.509Z,49.23
2019-04-05T11:10:28.014Z,49.00
2019-04-05T11:12:56.484Z,49.23
2019-04-05T11:15:24.963Z,51.87
2019-04-05T11:17:53.590Z,46.40
2019-04-05T11:20:22.817Z,47.17
2019-04-05T11:22:51.485Z,47.23
2019-04-05T11:25:20.786Z,48.83
2019-04-05T11:27:50.045Z,37.40
2019-04-05T11:30:35.783Z,44.37
2019-04-05T11:33:04.294Z,40.03
2019-04-05T11:35:32.796Z,48.17
2019-04-05T11:38:01.302Z,49.40
2019-04-05T11:40:29.771Z,41.90
2019-04-05T11:42:58.239Z,48.17
2019-04-05T11:45:26.723Z,49.40
2019-04-05T11:47:55.696Z,51.20
2019-04-05T11:50:34.526Z,44.67
2019-04-05T11:52:55.712Z,41.70
2019-04-05T11:55:24.207Z,50.70
2019-04-05T11:57:54.763Z,48.17
2019-04-05T12:00:28.378Z,50.47
2019-04-05T12:03:00.075Z,38.13
2019-04-05T12:05:28.868Z,45.77
2019-04-05T12:08:00.964Z,46.93
2019-04-05T12:10:27.634Z,51.17
2019-04-05T12:12:56.100Z,46.37
2019-04-05T12:15:24.589Z,48.30
2019-04-05T12:17:53.067Z,45.73
2019-04-05T12:20:21.541Z,50.80
2019-04-05T12:22:52.480Z,49.53
2019-04-05T12:25:20.267Z,50.60
2019-04-05T12:27:48.734Z,49.53
2019-04-05T12:30:19.947Z,50.03
2019-04-05T12:32:48.914Z,49.37
2019-04-05T12:35:21.389Z,40.37
2019-04-05T12:37:50.611Z,48.37
2019-04-05T12:40:18.315Z,45.63
2019-04-05T12:42:46.809Z,38.43
2019-04-05T12:45:15.642Z,41.57
2019-04-05T12:47:45.589Z,47.07
2019-04-05T12:50:15.324Z,49.10
2019-04-05T12:52:44.063Z,42.07
2019-04-05T12:55:12.532Z,48.37
2019-04-05T12:57:41.344Z,47.37
2019-04-05T13:00:13.217Z,48.10
2019-04-05T13:02:40.485Z,47.20
2019-04-05T13:05:08.972Z,46.93
2019-04-05T13:07:37.439Z,20.10
2019-04-05T13:10:06.212Z,28.57
2019-04-05T13:12:34.683Z,34.67
2019-04-05T13:15:11.728Z,35.33
2019-04-05T13:17:33.474Z,35.77
2019-04-05T13:20:01.958Z,36.73
2019-04-05T13:22:32.559Z,38.47
2019-04-05T13:25:00.661Z,37.73
2019-04-05T13:27:29.439Z,38.03
2019-04-05T13:29:57.914Z,38.80
2019-04-05T13:32:26.418Z,38.27
2019-04-05T13:34:55.852Z,39.57
2019-04-05T13:37:24.952Z,40.70
2019-04-05T13:39:53.427Z,36.43
2019-04-05T13:42:21.893Z,40.93
2019-04-05T13:44:50.362Z,41.20
2019-04-05T13:47:19.150Z,38.00
2019-04-05T13:49:47.655Z,39.67
2019-04-05T13:52:16.142Z,37.43
2019-04-05T13:54:44.639Z,46.57
2019-04-05T13:57:13.091Z,42.77
2019-04-05T13:59:44.464Z,46.07
2019-04-05T14:02:11.784Z,44.60
2019-04-05T14:04:40.244Z,44.93
2019-04-05T14:07:08.730Z,50.97
2019-04-05T14:09:38.490Z,47.43
2019-04-05T14:12:09.663Z,52.60
2019-04-05T14:14:39.436Z,48.63
2019-04-05T14:17:07.867Z,46.60
2019-04-05T14:19:36.432Z,46.67
2019-04-05T14:22:08.818Z,49.13
2019-04-05T14:24:35.095Z,47.37
2019-04-05T14:27:04.033Z,44.00
2019-04-05T14:29:33.333Z,46.53
2019-04-05T14:32:19.436Z,45.73
2019-04-05T14:34:32.489Z,46.17
2019-04-05T14:37:00.952Z,46.27
2019-04-05T14:39:29.432Z,45.27
2019-04-05T14:42:09.147Z,43.93
2019-04-05T14:44:28.338Z,48.10
2019-04-05T14:46:58.105Z,48.23
2019-04-05T14:49:30.258Z,48.93
2019-04-05T14:52:00.734Z,44.17
2019-04-05T14:54:30.186Z,46.90
2019-04-05T14:57:02.422Z,44.73
2019-04-05T14:59:28.309Z,49.33
2019-04-05T15:01:56.850Z,46.13
2019-04-05T15:04:25.327Z,48.27
2019-04-05T15:06:54.616Z,46.13
2019-04-05T15:09:25.544Z,47.53
2019-04-05T15:11:53.399Z,43.00
2019-04-05T15:14:21.893Z,41.37
2019-04-05T15:16:50.367Z,39.00
2019-04-05T15:19:19.157Z,43.07
2019-04-05T15:21:47.639Z,39.47
2019-04-05T15:24:17.147Z,45.40
2019-04-05T15:26:45.686Z,41.57
2019-04-05T15:29:14.179Z,42.80
2019-04-05T15:31:42.674Z,44.90
2019-04-05T15:34:11.134Z,45.87
2019-04-05T15:36:39.596Z,40.63
2019-04-05T15:39:08.918Z,49.73
2019-04-05T15:41:37.559Z,49.63
2019-04-05T15:44:06.098Z,42.63
2019-04-05T15:46:34.892Z,47.43
2019-04-05T15:49:03.382Z,47.47
2019-04-05T15:51:31.846Z,35.77
2019-04-05T15:54:01.399Z,44.03
2019-04-05T15:56:33.355Z,43.37
2019-04-05T15:59:03.597Z,49.43
2019-04-05T16:01:32.119Z,40.77
2019-04-05T16:04:02.820Z,51.13
2019-04-05T16:06:31.802Z,42.50
2019-04-05T16:09:00.343Z,43.57
2019-04-05T16:11:28.832Z,44.30
2019-04-05T16:13:57.607Z,45.57
2019-04-05T16:16:26.566Z,33.07
2019-04-05T16:18:55.067Z,42.87
2019-04-05T16:21:25.433Z,48.77
2019-04-05T16:23:53.982Z,41.53
2019-04-05T16:26:22.446Z,47.13
2019-04-05T16:28:50.927Z,44.70
2019-04-05T16:31:19.406Z,45.03
2019-04-05T16:33:47.914Z,45.87
2019-04-05T16:36:16.485Z,44.67
2019-04-05T16:38:44.982Z,44.00
2019-04-05T16:41:13.494Z,41.30
2019-04-05T16:43:42.086Z,34.70
2019-04-05T16:46:11.428Z,38.80
2019-04-05T16:48:39.927Z,38.00
2019-04-05T16:51:08.464Z,42.60
2019-04-05T16:53:38.605Z,42.67
2019-04-05T16:56:07.137Z,39.10
2019-04-05T16:58:35.624Z,40.83
2019-04-05T17:01:04.105Z,39.30
2019-04-05T17:03:32.902Z,37.73
2019-04-05T17:06:01.391Z,34.33
2019-04-05T17:08:29.872Z,34.17
2019-04-05T17:10:58.352Z,35.77
2019-04-05T17:13:26.837Z,35.73
2019-04-05T17:15:55.651Z,32.67
2019-04-05T17:18:24.186Z,32.37
2019-04-05T17:20:52.677Z,36.40
2019-04-05T17:23:21.150Z,33.87
2019-04-05T17:25:49.647Z,34.30
2019-04-05T17:28:18.144Z,34.37
2019-04-05T17:30:47.288Z,36.80
2019-04-05T17:33:15.763Z,35.57
2019-04-05T17:35:44.277Z,33.60
2019-04-05T17:38:12.747Z,34.47
2019-04-05T17:40:41.590Z,31.10
2019-04-05T17:43:10.058Z,37.50
2019-04-05T17:45:38.571Z,31.83
2019-04-05T17:48:07.350Z,33.23
2019-04-05T17:50:35.839Z,34.80
2019-04-05T17:53:12.020Z,32.93
2019-04-05T17:55:34.660Z,33.90
2019-04-05T17:58:05.053Z,36.20
2019-04-05T18:00:33.539Z,27.23
2019-04-05T18:03:02.067Z,33.50
2019-04-05T18:05:30.556Z,37.13
2019-04-05T18:07:59.042Z,41.73
2019-04-05T18:10:27.520Z,43.13
2019-04-05T18:12:56.008Z,37.37
2019-04-05T18:15:24.575Z,33.80
2019-04-05T18:17:53.412Z,33.53
2019-04-05T18:20:21.872Z,37.63
2019-04-05T18:22:50.389Z,34.80
2019-04-05T18:25:18.916Z,36.93
2019-04-05T18:27:47.392Z,36.13
2019-04-05T18:30:16.081Z,36.83
2019-04-05T18:32:44.582Z,36.63
2019-04-05T18:35:13.358Z,30.13
2019-04-05T18:37:41.946Z,34.03
2019-04-05T18:40:11.034Z,38.33
2019-04-05T18:42:39.524Z,36.57
2019-04-05T18:45:07.988Z,31.53
2019-04-05T18:47:36.486Z,31.40
2019-04-05T18:50:05.364Z,34.90
2019-04-05T18:52:33.852Z,34.93
2019-04-05T18:55:02.702Z,30.37
2019-04-05T18:57:31.459Z,37.43
2019-04-05T18:59:59.978Z,34.20
2019-04-05T19:02:28.460Z,34.10
2019-04-05T19:04:56.965Z,36.90
2019-04-05T19:07:25.484Z,37.43
2019-04-05T19:09:53.977Z,34.43
2019-04-05T19:12:22.483Z,37.50
2019-04-05T19:14:51.477Z,30.83
2019-04-05T19:17:24.129Z,36.47
2019-04-05T19:19:50.190Z,33.80
2019-04-05T19:22:18.670Z,30.03
2019-04-05T19:24:47.176Z,30.83
2019-04-05T19:27:15.642Z,36.17
2019-04-05T19:29:44.114Z,34.10
2019-04-05T19:49:44.463Z,30.47
2019-04-05T19:52:12.953Z,39.87
2019-04-05T19:54:41.436Z,35.43
2019-04-05T19:57:09.976Z,30.33
2019-04-05T19:59:38.478Z,36.57
2019-04-05T20:02:07.104Z,30.93
2019-04-05T20:04:35.920Z,36.23
2019-04-05T20:07:04.728Z,32.43
2019-04-05T20:09:33.228Z,32.03
2019-04-05T20:12:01.701Z,27.57
2019-04-05T20:14:30.204Z,28.93
2019-04-05T20:16:58.715Z,30.77
2019-04-05T20:19:27.235Z,35.33
2019-04-05T20:21:55.919Z,32.17
2019-04-05T20:24:25.208Z,29.33
2019-04-05T20:26:53.707Z,28.77
2019-04-05T20:29:22.287Z,30.17
2019-04-05T20:31:50.827Z,33.10
2019-04-05T20:34:19.313Z,27.67
2019-04-05T20:36:47.838Z,29.23
2019-04-05T20:39:16.387Z,31.60
2019-04-05T20:41:45.125Z,32.50
2019-04-05T20:44:13.622Z,25.27
2019-04-05T20:46:42.116Z,32.30
2019-04-05T20:49:12.022Z,33.70
2019-04-05T20:51:40.560Z,32.40
2019-04-05T20:54:09.025Z,33.50
2019-04-05T20:56:37.561Z,29.27
2019-04-05T20:59:06.074Z,32.30
2019-04-05T21:01:34.613Z,28.50
2019-04-05T21:04:03.060Z,32.13
2019-04-05T21:06:31.557Z,32.83
2019-04-05T21:09:00.404Z,32.83
2019-04-05T21:11:28.874Z,30.77
2019-04-05T21:13:57.388Z,29.03
2019-04-05T21:16:26.154Z,31.20
2019-04-05T21:18:54.634Z,26.70
2019-04-05T21:21:23.472Z,27.40
2019-04-05T21:23:51.960Z,25.60
2019-04-05T21:26:20.460Z,27.27
2019-04-05T21:28:48.961Z,30.70
2019-04-05T21:31:17.472Z,31.90
2019-04-05T21:33:46.078Z,33.60
2019-04-05T21:36:14.578Z,34.90
2019-04-05T21:38:43.074Z,32.93
2019-04-05T21:41:13.193Z,32.47
2019-04-05T21:43:41.847Z,33.90
2019-04-05T21:46:10.349Z,34.00
2019-04-05T21:48:38.883Z,32.27
2019-04-05T21:51:07.386Z,35.23
2019-04-05T21:53:36.007Z,35.30
2019-04-05T21:56:04.575Z,35.67
2019-04-05T21:58:33.086Z,33.90
2019-04-05T22:01:05.174Z,34.60
2019-04-05T22:03:33.698Z,32.90
2019-04-05T22:06:02.206Z,33.23
2019-04-05T22:08:30.719Z,34.03
2019-04-05T22:10:59.181Z,36.70
2019-04-05T22:13:27.700Z,33.57
2019-04-05T22:15:56.177Z,35.33
2019-04-05T22:18:24.678Z,33.00
2019-04-05T22:20:53.423Z,32.43
2019-04-05T22:23:22.214Z,30.20
2019-04-05T22:25:50.753Z,31.77
2019-04-05T22:28:19.566Z,30.10
2019-04-05T22:30:48.078Z,30.93
2019-04-05T22:33:16.574Z,33.87
2019-04-05T22:35:45.085Z,32.80
2019-04-05T22:38:13.554Z,34.90
2019-04-05T22:40:42.060Z,34.13
2019-04-05T22:43:10.550Z,35.17
2019-04-05T22:45:39.358Z,36.23
2019-04-05T22:48:07.823Z,33.83
2019-04-05T22:50:36.357Z,33.13
2019-04-05T22:53:04.850Z,35.83
2019-04-05T22:55:33.331Z,34.27
2019-04-05T22:58:02.086Z,34.03
2019-04-05T23:00:30.581Z,33.07
2019-04-05T23:02:59.447Z,34.07
2019-04-05T23:05:27.929Z,34.70
2019-04-05T23:07:56.499Z,33.83
2019-04-05T23:10:25.024Z,34.47
2019-04-05T23:12:53.506Z,33.93
2019-04-05T23:15:22.029Z,36.30
2019-04-05T23:17:50.539Z,31.40
2019-04-05T23:20:19.359Z,33.97
2019-04-05T23:22:47.893Z,35.20
2019-04-05T23:25:21.747Z,33.97
2019-04-05T23:27:46.602Z,34.77
2019-04-05T23:30:15.099Z,35.23
2019-04-05T23:32:43.601Z,35.00
2019-04-05T23:35:12.092Z,40.20
2019-04-05T23:37:40.572Z,38.50
2019-04-05T23:40:09.168Z,33.13
2019-04-05T23:42:37.990Z,34.90
2019-04-05T23:45:06.552Z,34.40
2019-04-05T23:47:35.035Z,33.07
2019-04-05T23:50:03.548Z,34.60
2019-04-05T23:52:32.037Z,34.40
2019-04-05T23:55:00.510Z,33.23
2019-04-05T23:57:29.295Z,33.77
2019-04-05T23:59:57.755Z,33.33
